Terminal Aerodrome Forecast
Issued by NWS Sterling, VA

Home | Current Version | Previous Version | Text Only | Print | Product List | Glossary On
Versions: 1 2 3 4 5 6 7 8 9 10 11 12 13
000
FTUS41 KLWX 200700 AAA
TAFMRB
TAF AMD
KMRB 200754Z 2008/2106 17005KT P6SM BKN024 OVC070
     FM201000 00000KT P6SM OVC015
     FM201300 VRB03KT P6SM BKN025
     FM201500 18006KT P6SM BKN050
     FM201700 18008KT P6SM SCT250
     FM210300 00000KT P6SM SCT250=

USA.gov is the U.S. government's official web portal to all federal, state and local government web resources and services.